Time;durP1;ratioP1;P1;durP2;ratioP2;P2;SDS_P1;SDS_P2;PMS_P1;PMS_P2;Temp;Humidity;BMP_temperature;BMP_pressure;BME280_temperature;BME280_humidity;BME280_pressure;Samples;Min_cycle;Max_cycle;Signal;HPM_P1;HPM_P2
2021/04/23 00:00:36;;;;;;;10.60;7.53;;;;;;;13.14;60.37;100272.28;5047003;28;20393;-21
2021/04/23 00:03:13;;;;;;;10.48;7.20;;;;;;;13.56;59.53;100274.88;5027883;28;20489;-21
2021/04/23 00:05:39;;;;;;;9.93;7.43;;;;;;;13.59;58.73;100263.72;5046688;28;20021;-22
2021/04/23 00:08:04;;;;;;;11.15;7.60;;;;;;;13.84;58.16;100258.09;5046715;28;20112;-22
2021/04/23 00:10:30;;;;;;;11.40;7.38;;;;;;;14.01;57.98;100260.84;5046550;28;20029;-22
2021/04/23 00:12:55;;;;;;;12.77;8.35;;;;;;;13.76;58.98;100265.69;5028391;28;20079;-22
2021/04/23 00:15:21;;;;;;;10.88;7.32;;;;;;;13.81;58.98;100255.06;5028671;28;20538;-22
2021/04/23 00:17:48;;;;;;;13.90;9.70;;;;;;;13.74;57.99;100243.66;5046425;28;20037;-21
2021/04/23 00:20:21;;;;;;;14.65;10.50;;;;;;;13.86;58.30;100257.84;5046373;28;20515;-22
2021/04/23 00:22:46;;;;;;;13.70;9.70;;;;;;;13.46;59.69;100266.63;5046313;28;20029;-22
2021/04/23 00:25:12;;;;;;;12.63;8.68;;;;;;;13.75;59.17;100264.03;5046468;28;20523;-21
2021/04/23 00:27:41;;;;;;;12.80;7.53;;;;;;;14.05;57.53;100250.47;5049517;28;20111;-22
2021/04/23 00:30:07;;;;;;;10.93;7.40;;;;;;;14.05;57.35;100248.59;5050047;28;20033;-21
2021/04/23 00:32:51;;;;;;;10.30;7.10;;;;;;;13.91;57.21;100238.38;5049606;28;20029;-21
2021/04/23 00:35:16;;;;;;;11.82;7.32;;;;;;;13.48;58.25;100240.41;5050218;28;20032;-22
2021/04/23 00:37:46;;;;;;;10.45;6.90;;;;;;;13.80;57.72;100248.06;5049795;28;20738;-22
2021/04/23 00:40:24;;;;;;;11.10;6.53;;;;;;;14.14;56.83;100275.03;5049782;28;20115;-22
2021/04/23 00:42:49;;;;;;;10.07;6.47;;;;;;;14.16;56.96;100262.19;5049589;28;20087;-21
2021/04/23 00:45:17;;;;;;;9.88;6.30;;;;;;;13.90;57.71;100250.16;5049901;28;20037;-20
2021/04/23 00:47:45;;;;;;;11.00;6.90;;;;;;;13.84;57.76;100228.59;5049550;28;20033;-21
2021/04/23 00:50:11;;;;;;;8.30;5.95;;;;;;;13.88;57.83;100260.31;5031860;28;20041;-22
2021/04/23 00:52:37;;;;;;;10.23;6.22;;;;;;;13.43;60.00;100262.53;5049138;28;20041;-21
2021/04/23 00:55:04;;;;;;;11.15;7.60;;;;;;;13.82;58.77;100235.25;5049777;28;20075;-20
2021/04/23 00:57:30;;;;;;;11.18;6.35;;;;;;;13.92;58.29;100261.47;5049580;28;20033;-21
2021/04/23 00:59:55;;;;;;;13.57;7.00;;;;;;;13.93;58.40;100260.41;5049600;28;20033;-21
2021/04/23 01:02:21;;;;;;;9.38;6.68;;;;;;;13.88;58.55;100269.16;5031886;28;20044;-22
2021/04/23 01:04:46;;;;;;;9.27;6.30;;;;;;;13.60;59.04;100259.97;5049120;28;20481;-22
2021/04/23 01:07:12;;;;;;;9.73;6.55;;;;;;;13.60;59.42;100257.28;5049507;28;20032;-22
2021/04/23 01:09:38;;;;;;;10.27;6.65;;;;;;;13.65;58.96;100252.06;5049335;28;20125;-21
2021/04/23 01:12:05;;;;;;;13.82;7.47;;;;;;;13.23;60.08;100238.75;5049165;28;20412;-22
2021/04/23 01:14:30;;;;;;;10.30;7.07;;;;;;;13.49;60.30;100263.47;5031295;28;20029;-22
2021/04/23 01:16:56;;;;;;;9.70;7.30;;;;;;;13.71;59.07;100265.56;5048961;28;20039;-22
2021/04/23 01:19:22;;;;;;;10.65;7.35;;;;;;;13.55;60.05;100267.91;5049167;28;20036;-22
2021/04/23 01:21:48;;;;;;;11.73;7.68;;;;;;;13.83;59.13;100269.03;5031174;28;20033;-22
2021/04/23 01:24:14;;;;;;;10.63;6.95;;;;;;;13.55;59.92;100273.25;5048996;28;20111;-22
2021/04/23 01:26:44;;;;;;;10.65;7.18;;;;;;;13.81;59.37;100281.84;5048687;28;20068;-22
2021/04/23 01:29:11;;;;;;;9.85;7.15;;;;;;;13.63;59.84;100280.16;5031036;28;20028;-22
2021/04/23 01:31:39;;;;;;;11.73;7.57;;;;;;;12.70;63.25;100279.72;5048988;28;20040;-22
2021/04/23 01:34:10;;;;;;;11.02;7.10;;;;;;;12.15;65.43;100274.47;5048840;28;20036;-23
2021/04/23 01:36:36;;;;;;;12.45;7.05;;;;;;;12.38;64.86;100258.56;5048495;28;20076;-22
2021/04/23 01:39:03;;;;;;;10.68;7.47;;;;;;;12.98;62.67;100276.44;5029740;28;20417;-22
2021/04/23 01:41:28;;;;;;;9.68;6.90;;;;;;;13.18;61.76;100281.47;5048427;28;20056;-21
2021/04/23 01:43:54;;;;;;;11.90;8.50;;;;;;;13.49;60.38;100268.84;5048779;28;20039;-22
2021/04/23 01:46:20;;;;;;;10.35;7.45;;;;;;;13.00;62.08;100263.63;5048680;28;20029;-22
2021/04/23 01:48:45;;;;;;;9.45;7.32;;;;;;;13.49;60.53;100268.84;5048226;28;20044;-22
2021/04/23 01:51:13;;;;;;;11.82;7.75;;;;;;;13.52;61.01;100287.13;5048340;28;20119;-22
2021/04/23 01:53:38;;;;;;;11.70;7.27;;;;;;;13.89;59.54;100280.69;5048405;28;20036;-21
2021/04/23 01:56:05;;;;;;;11.15;7.45;;;;;;;14.01;59.31;100276.13;5048177;28;20025;-22
2021/04/23 01:58:30;;;;;;;11.93;7.70;;;;;;;13.04;62.01;100250.59;5048434;28;20029;-22
2021/04/23 02:00:56;;;;;;;11.40;7.20;;;;;;;12.92;62.38;100257.81;5030509;28;20047;-22
2021/04/23 02:03:22;;;;;;;10.65;6.97;;;;;;;13.36;61.68;100279.78;5048192;28;20033;-21
2021/04/23 02:05:48;;;;;;;11.98;7.32;;;;;;;13.40;61.34;100289.81;5048205;28;20033;-22
2021/04/23 02:08:15;;;;;;;11.00;7.53;;;;;;;13.41;60.62;100267.31;5047670;28;20047;-21
2021/04/23 02:11:02;;;;;;;11.52;7.53;;;;;;;13.71;59.77;100292.34;5030031;28;20029;-21
2021/04/23 02:13:27;;;;;;;12.02;7.20;;;;;;;13.83;58.96;100267.19;5048114;28;20033;-20
2021/04/23 02:15:53;;;;;;;11.65;7.80;;;;;;;14.13;58.04;100274.22;5048397;28;20029;-21
2021/04/23 02:18:19;;;;;;;9.73;7.05;;;;;;;13.97;58.02;100265.06;5048155;28;20071;-22
2021/04/23 02:20:45;;;;;;;12.35;7.50;;;;;;;13.86;58.41;100273.94;5029847;28;20061;-22
2021/04/23 02:23:12;;;;;;;13.25;8.02;;;;;;;13.81;58.56;100276.50;5047865;28;20063;-23
2021/04/23 02:25:38;;;;;;;10.02;7.28;;;;;;;13.75;58.74;100269.41;5030120;28;20031;-22
2021/04/23 02:28:04;;;;;;;9.65;7.18;;;;;;;13.86;58.71;100284.66;5047808;28;20033;-22
2021/04/23 02:30:32;;;;;;;12.43;6.97;;;;;;;13.42;59.21;100257.41;5047928;28;20033;-23
2021/04/23 02:32:58;;;;;;;11.57;7.05;;;;;;;13.88;58.17;100263.81;5030020;28;20112;-22
2021/04/23 02:35:23;;;;;;;10.35;6.82;;;;;;;14.21;57.49;100286.47;5047642;28;20033;-21
2021/04/23 02:37:49;;;;;;;9.40;6.85;;;;;;;13.94;58.06;100284.31;5047497;28;20032;-22
2021/04/23 02:40:16;;;;;;;10.60;7.50;;;;;;;13.38;60.42;100272.31;5047548;28;20033;-23
2021/04/23 02:42:42;;;;;;;36.42;32.70;;;;;;;13.18;60.34;100292.19;5047314;28;20515;-22
2021/04/23 02:45:09;;;;;;;13.07;11.23;;;;;;;12.99;60.83;100272.69;5047714;28;20033;-22
2021/04/23 02:47:35;;;;;;;13.27;8.48;;;;;;;13.23;60.03;100292.31;5029649;28;20166;-22
2021/04/23 02:50:00;;;;;;;12.77;7.43;;;;;;;13.63;58.41;100285.50;5047332;28;20516;-22
2021/04/23 02:52:26;;;;;;;9.30;6.68;;;;;;;13.00;59.75;100286.91;5047108;28;20056;-22
2021/04/23 02:54:51;;;;;;;11.63;7.30;;;;;;;13.38;59.36;100299.09;5029527;28;20032;-22
2021/04/23 02:57:17;;;;;;;12.45;7.75;;;;;;;13.47;59.75;100300.41;5047193;28;20032;-22
2021/04/23 02:59:43;;;;;;;13.07;7.72;;;;;;;13.51;60.00;100293.53;5047273;28;20028;-21
2021/04/23 03:02:08;;;;;;;9.82;7.13;;;;;;;13.56;60.22;100285.59;5047203;28;20043;-22
2021/04/23 03:04:34;;;;;;;10.60;6.93;;;;;;;13.58;60.39;100288.06;5047262;28;20029;-20
2021/04/23 03:06:59;;;;;;;10.02;7.15;;;;;;;13.51;60.74;100282.00;5047176;28;20032;-21
2021/04/23 03:09:25;;;;;;;8.77;6.85;;;;;;;13.53;60.38;100288.75;5047499;28;20037;-22
2021/04/23 03:11:50;;;;;;;9.30;7.18;;;;;;;13.37;60.99;100281.41;5047240;28;20150;-22
2021/04/23 03:14:16;;;;;;;11.32;7.03;;;;;;;13.58;60.52;100299.56;5029675;28;20025;-22
2021/04/23 03:16:42;;;;;;;10.98;7.63;;;;;;;13.14;62.30;100292.88;5046747;28;20065;-22
2021/04/23 03:19:18;;;;;;;9.60;6.50;;;;;;;13.48;61.27;100304.69;5029163;28;20029;-22
2021/04/23 03:21:43;;;;;;;11.57;6.75;;;;;;;13.20;62.10;100308.84;5047415;28;20054;-22
2021/04/23 03:24:09;;;;;;;10.55;6.55;;;;;;;13.19;62.66;100296.50;5047142;28;20400;-22
2021/04/23 03:26:35;;;;;;;11.75;7.57;;;;;;;13.40;61.45;100297.00;5029231;28;20029;-21
2021/04/23 03:29:00;;;;;;;13.52;7.65;;;;;;;13.56;60.62;100298.19;5047123;28;20064;-22
2021/04/23 03:31:26;;;;;;;11.10;7.70;;;;;;;13.08;62.30;100318.72;5047133;28;20474;-22
2021/04/23 03:33:52;;;;;;;10.82;7.20;;;;;;;13.11;62.06;100326.28;5029086;28;20120;-22
2021/04/23 03:36:17;;;;;;;9.55;7.07;;;;;;;12.76;62.70;100324.31;5046740;28;20109;-22
2021/04/23 03:38:45;;;;;;;13.45;7.88;;;;;;;13.32;61.38;100316.09;5046578;28;20021;-21
2021/04/23 03:41:13;;;;;;;13.55;8.25;;;;;;;13.22;61.28;100328.19;5028473;28;20468;-22
2021/04/23 03:43:38;;;;;;;11.95;7.93;;;;;;;13.20;61.31;100303.50;5046447;28;20033;-21
2021/04/23 03:46:04;;;;;;;12.20;7.85;;;;;;;12.88;62.33;100320.88;5046795;28;20043;-22
2021/04/23 03:48:30;;;;;;;12.05;7.82;;;;;;;12.53;65.11;100334.91;5046648;28;20481;-21
2021/04/23 03:50:55;;;;;;;12.77;7.68;;;;;;;12.68;64.88;100348.69;5046799;28;20068;-22
2021/04/23 03:53:21;;;;;;;15.15;7.93;;;;;;;12.46;65.56;100338.50;5046561;28;20109;-23
2021/04/23 03:55:48;;;;;;;10.25;6.90;;;;;;;12.60;66.24;100351.69;5046662;28;20069;-22
2021/04/23 03:58:14;;;;;;;9.93;6.60;;;;;;;12.64;66.10;100363.56;5046608;28;20041;-22
2021/04/23 04:00:46;;;;;;;14.27;9.65;;;;;;;12.63;66.18;100368.13;5028709;28;20079;-22
2021/04/23 04:03:12;;;;;;;12.98;8.45;;;;;;;12.67;66.06;100371.16;5050531;28;20040;-22
2021/04/23 04:05:38;;;;;;;9.95;7.07;;;;;;;12.67;65.30;100357.78;5050525;28;20063;-22
2021/04/23 04:08:04;;;;;;;11.27;6.82;;;;;;;12.81;65.14;100369.13;5050546;28;20460;-22
2021/04/23 04:10:29;;;;;;;9.25;6.70;;;;;;;13.08;63.94;100374.94;5050203;28;20024;-22
2021/04/23 04:12:55;;;;;;;10.55;6.50;;;;;;;12.92;64.59;100354.16;5050061;28;20088;-22
2021/04/23 04:15:20;;;;;;;9.90;7.22;;;;;;;12.27;66.42;100342.19;5050237;28;20536;-22
2021/04/23 04:17:46;;;;;;;12.93;9.35;;;;;;;11.98;68.91;100359.78;5050162;28;20052;-22
2021/04/23 04:20:12;;;;;;;10.90;8.32;;;;;;;12.03;68.35;100365.28;5050104;28;20032;-22
2021/04/23 04:22:39;;;;;;;10.57;7.50;;;;;;;12.73;66.13;100362.25;5050088;28;20025;-21
2021/04/23 04:25:06;;;;;;;14.90;9.02;;;;;;;12.81;65.75;100361.91;5050102;28;20036;-22
2021/04/23 04:27:31;;;;;;;31.33;18.63;;;;;;;12.60;66.06;100363.19;5049913;28;20029;-21
2021/04/23 04:29:57;;;;;;;20.52;13.88;;;;;;;12.73;65.66;100346.19;5050179;28;20047;-21
2021/04/23 04:32:23;;;;;;;15.43;10.88;;;;;;;12.98;65.13;100382.72;5050183;28;20076;-20
2021/04/23 04:34:48;;;;;;;13.63;10.00;;;;;;;13.59;63.65;100389.66;5050018;28;20025;-22
2021/04/23 04:37:14;;;;;;;12.27;9.85;;;;;;;13.43;63.96;100396.50;5049980;28;20033;-22
2021/04/23 04:39:39;;;;;;;13.40;10.10;;;;;;;13.49;63.29;100397.44;5049889;28;20033;-22
2021/04/23 04:42:05;;;;;;;12.85;8.88;;;;;;;13.61;62.65;100395.59;5049650;28;20139;-22
2021/04/23 04:44:31;;;;;;;13.38;8.82;;;;;;;13.82;63.06;100385.38;5049391;28;20033;-19
2021/04/23 04:46:57;;;;;;;11.27;7.72;;;;;;;13.80;61.79;100372.19;5049587;28;20119;-22
2021/04/23 04:49:22;;;;;;;10.63;7.50;;;;;;;13.98;60.96;100387.34;5049955;28;20485;-23
2021/04/23 04:51:48;;;;;;;9.45;6.43;;;;;;;13.83;60.91;100398.53;5049607;28;20049;-22
2021/04/23 04:54:13;;;;;;;10.45;7.05;;;;;;;13.67;61.78;100393.88;5049628;28;20037;-22
2021/04/23 04:56:39;;;;;;;10.48;7.28;;;;;;;13.72;62.29;100390.50;5031480;28;20037;-21
2021/04/23 04:59:04;;;;;;;10.30;7.00;;;;;;;13.71;61.30;100346.78;5031505;28;20040;-22
2021/04/23 05:01:30;;;;;;;13.63;7.43;;;;;;;13.67;61.93;100372.44;5049427;28;20061;-22
2021/04/23 05:03:56;;;;;;;9.05;7.13;;;;;;;13.83;62.15;100386.97;5049468;28;20552;-21
2021/04/23 05:06:21;;;;;;;9.68;6.80;;;;;;;13.64;62.18;100379.03;5031743;28;20051;-21
2021/04/23 05:08:47;;;;;;;11.18;7.40;;;;;;;13.90;62.34;100382.34;5049305;28;20032;-21
2021/04/23 05:11:12;;;;;;;11.27;7.32;;;;;;;13.68;61.93;100383.97;5031653;28;20029;-22
2021/04/23 05:13:38;;;;;;;11.07;7.10;;;;;;;13.77;62.38;100387.91;5048095;28;20052;-22
2021/04/23 05:16:04;;;;;;;10.18;7.40;;;;;;;13.47;63.50;100399.53;5031314;28;20039;-22
2021/04/23 05:18:29;;;;;;;10.15;6.88;;;;;;;13.35;63.57;100391.47;5049393;28;20029;-22
2021/04/23 05:20:55;;;;;;;10.63;6.72;;;;;;;13.44;63.82;100399.97;5031357;28;20060;-22
2021/04/23 05:23:21;;;;;;;10.70;7.30;;;;;;;13.70;62.22;100387.22;5049423;28;20036;-22
2021/04/23 05:25:46;;;;;;;12.15;7.15;;;;;;;13.80;63.29;100395.50;5048896;28;20081;-21
2021/04/23 05:28:12;;;;;;;10.10;7.00;;;;;;;13.95;62.55;100384.31;5048780;28;20029;-22
2021/04/23 05:30:37;;;;;;;10.50;6.95;;;;;;;13.93;62.64;100389.91;5048589;28;20033;-21
2021/04/23 05:33:04;;;;;;;11.43;6.68;;;;;;;13.75;63.61;100365.88;5049144;28;20616;-22
2021/04/23 05:35:30;;;;;;;10.23;6.95;;;;;;;13.97;63.79;100383.03;5049071;28;20056;-22
2021/04/23 05:37:56;;;;;;;9.38;6.32;;;;;;;14.00;63.09;100360.31;5049110;28;20466;-22
2021/04/23 05:40:26;;;;;;;8.82;6.03;;;;;;;13.89;62.83;100369.16;5048615;28;20032;-22
2021/04/23 05:42:52;;;;;;;9.57;6.40;;;;;;;13.95;64.35;100382.44;5048668;28;20086;-22
2021/04/23 05:45:18;;;;;;;9.05;6.35;;;;;;;14.26;63.69;100385.81;5048507;28;20033;-22
2021/04/23 05:47:44;;;;;;;9.85;6.25;;;;;;;14.49;61.60;100389.53;5048367;28;20444;-22
2021/04/23 05:50:10;;;;;;;9.35;6.13;;;;;;;14.33;62.17;100375.78;5048714;28;20095;-21
2021/04/23 05:52:36;;;;;;;11.15;6.47;;;;;;;14.51;62.59;100404.34;5048379;28;20045;-22
2021/04/23 05:55:02;;;;;;;9.32;5.65;;;;;;;14.44;61.22;100398.25;5048445;28;20489;-21
2021/04/23 05:57:28;;;;;;;9.45;5.82;;;;;;;14.50;61.76;100417.97;5048174;28;20033;-20
2021/04/23 05:59:53;;;;;;;7.40;4.97;;;;;;;14.72;61.63;100412.84;5048483;28;20282;-20
2021/04/23 06:02:19;;;;;;;9.57;5.28;;;;;;;14.75;60.90;100415.03;5048673;28;20032;-21
2021/04/23 06:04:44;;;;;;;7.53;4.78;;;;;;;14.80;60.65;100413.28;5048279;28;20047;-22
2021/04/23 06:07:10;;;;;;;7.90;4.93;;;;;;;15.17;59.61;100417.47;5048132;28;20068;-22
2021/04/23 06:09:36;;;;;;;9.60;4.47;;;;;;;14.75;59.30;100415.88;5047818;28;20082;-23
2021/04/23 06:12:01;;;;;;;7.82;4.20;;;;;;;14.72;60.09;100420.88;5048082;28;20068;-21
2021/04/23 06:14:27;;;;;;;7.03;4.35;;;;;;;14.70;60.78;100421.13;5030133;28;20017;-22
2021/04/23 06:16:53;;;;;;;6.88;4.55;;;;;;;14.52;60.90;100415.88;5013700;28;20461;-22
2021/04/23 06:19:19;;;;;;;8.63;4.65;;;;;;;14.65;60.92;100418.34;5047882;28;20056;-22
2021/04/23 06:21:45;;;;;;;7.20;4.70;;;;;;;14.69;60.33;100424.88;5048101;28;20048;-22
2021/04/23 06:24:11;;;;;;;7.22;4.13;;;;;;;14.92;60.01;100431.22;5047495;28;20108;-22
2021/04/23 06:26:36;;;;;;;6.43;3.97;;;;;;;14.99;59.43;100418.47;5029718;28;21289;-22
2021/04/23 06:29:02;;;;;;;8.15;4.13;;;;;;;14.97;58.98;100413.31;5047611;28;20025;-21
2021/04/23 06:31:28;;;;;;;6.38;4.07;;;;;;;15.21;58.40;100440.09;5047801;28;20064;-22
2021/04/23 06:33:53;;;;;;;7.32;4.40;;;;;;;15.30;58.78;100437.84;5047761;28;20025;-22
2021/04/23 06:36:19;;;;;;;6.40;3.97;;;;;;;15.13;58.89;100416.31;5047712;28;20477;-21
2021/04/23 06:38:45;;;;;;;6.28;4.10;;;;;;;15.02;58.84;100434.09;5047543;28;20029;-20
2021/04/23 06:41:12;;;;;;;6.50;4.35;;;;;;;14.86;57.95;100412.31;5047709;28;20742;-21
2021/04/23 06:43:37;;;;;;;7.47;3.88;;;;;;;14.90;58.02;100417.22;5047638;28;20782;-21
2021/04/23 06:46:03;;;;;;;6.88;4.03;;;;;;;15.29;57.53;100437.03;5048133;28;20122;-21
2021/04/23 06:48:28;;;;;;;7.90;4.55;;;;;;;15.50;57.11;100437.38;5047313;28;20037;-22
2021/04/23 06:50:54;;;;;;;6.15;3.70;;;;;;;15.40;57.15;100416.53;5047232;28;20083;-22
2021/04/23 06:53:19;;;;;;;6.35;3.67;;;;;;;15.77;55.74;100437.59;5047207;28;20048;-21
2021/04/23 06:55:46;;;;;;;5.78;3.78;;;;;;;15.67;56.36;100443.59;5047168;28;20033;-21
2021/04/23 06:58:12;;;;;;;5.35;3.25;;;;;;;15.49;56.28;100441.97;5047101;28;20033;-22
2021/04/23 07:00:38;;;;;;;5.03;2.40;;;;;;;15.52;56.33;100451.41;5047234;28;20080;-22
2021/04/23 07:03:05;;;;;;;5.30;3.00;;;;;;;15.79;56.00;100451.63;5047263;28;20039;-22
2021/04/23 07:05:30;;;;;;;7.65;2.70;;;;;;;15.49;55.59;100452.72;5047411;28;20048;-21
2021/04/23 07:07:56;;;;;;;6.38;2.80;;;;;;;15.65;55.92;100445.69;5046920;28;20421;-22
2021/04/23 07:10:23;;;;;;;4.50;2.40;;;;;;;15.74;54.83;100462.31;5029225;28;20036;-21
2021/04/23 07:12:49;;;;;;;6.88;2.50;;;;;;;15.79;54.76;100462.38;5046843;28;20493;-22
2021/04/23 07:15:18;;;;;;;4.13;2.30;;;;;;;15.37;55.00;100454.63;5029444;28;20033;-23
2021/04/23 07:17:44;;;;;;;4.00;2.20;;;;;;;15.33;55.85;100440.84;5046699;28;20063;-22
2021/04/23 07:20:11;;;;;;;5.82;2.90;;;;;;;15.52;56.15;100454.91;5046965;28;20455;-22
2021/04/23 07:22:36;;;;;;;4.18;2.60;;;;;;;15.30;55.17;100432.47;5046582;28;20120;-21
2021/04/23 07:25:02;;;;;;;5.95;3.53;;;;;;;15.52;55.88;100446.84;5046821;28;20132;-23
2021/04/23 07:27:28;;;;;;;3.55;2.05;;;;;;;15.63;55.90;100459.41;5046658;28;20116;-22
2021/04/23 07:29:53;;;;;;;6.50;4.18;;;;;;;15.61;54.73;100456.16;5028925;28;20112;-22
2021/04/23 07:32:19;;;;;;;3.22;1.73;;;;;;;15.65;54.25;100451.91;5044043;28;20478;-22
2021/04/23 07:34:45;;;;;;;3.50;1.85;;;;;;;15.96;54.42;100457.81;5046213;28;20441;-22
2021/04/23 07:37:10;;;;;;;3.95;2.05;;;;;;;15.94;54.12;100451.88;5048776;28;20063;-21
2021/04/23 07:39:36;;;;;;;3.15;1.70;;;;;;;15.99;52.30;100445.75;5032979;28;20053;-22
2021/04/23 07:42:01;;;;;;;5.03;2.00;;;;;;;15.72;53.35;100441.03;5050634;28;20025;-21
2021/04/23 07:44:27;;;;;;;2.95;1.98;;;;;;;16.03;53.30;100452.28;5050876;28;20044;-22
2021/04/23 07:46:52;;;;;;;2.70;2.00;;;;;;;15.89;53.72;100429.47;5050460;28;20057;-22
2021/04/23 07:49:18;;;;;;;5.45;2.00;;;;;;;15.98;53.08;100444.13;5050718;28;20053;-21
2021/04/23 07:51:44;;;;;;;3.50;1.90;;;;;;;16.00;52.40;100453.59;5050386;28;20069;-22
2021/04/23 07:54:09;;;;;;;4.20;2.10;;;;;;;16.07;52.85;100446.16;5048230;28;20116;-21
2021/04/23 07:56:35;;;;;;;7.43;4.13;;;;;;;16.41;51.95;100448.81;5049898;28;20033;-22
2021/04/23 07:59:01;;;;;;;4.10;2.70;;;;;;;16.40;51.44;100436.38;5050439;28;20144;-22
2021/04/23 08:01:27;;;;;;;5.45;2.00;;;;;;;16.62;52.26;100449.06;5050366;28;20021;-22
2021/04/23 08:03:52;;;;;;;5.45;2.95;;;;;;;16.85;50.47;100454.22;5050867;28;20103;-22
2021/04/23 08:06:18;;;;;;;4.90;2.20;;;;;;;17.22;50.85;100442.81;5050267;28;20029;-21
2021/04/23 08:08:43;;;;;;;2.20;1.67;;;;;;;17.17;48.51;100452.72;5050233;28;20056;-20
2021/04/23 08:11:09;;;;;;;2.85;1.70;;;;;;;16.52;50.21;100438.16;5050177;28;20068;-20
2021/04/23 08:13:34;;;;;;;4.28;2.40;;;;;;;16.72;51.48;100446.50;5050843;28;20040;-20
2021/04/23 08:16:00;;;;;;;3.20;1.95;;;;;;;16.80;50.27;100456.84;5046193;28;20095;-22
2021/04/23 08:18:25;;;;;;;2.80;2.17;;;;;;;16.81;50.51;100453.09;5030794;28;20032;-22
2021/04/23 08:20:51;;;;;;;2.70;1.70;;;;;;;16.65;51.36;100438.63;5049463;28;20041;-22
2021/04/23 08:23:16;;;;;;;5.22;2.30;;;;;;;17.14;51.22;100443.28;5050032;28;20032;-21
2021/04/23 08:25:42;;;;;;;2.90;1.90;;;;;;;17.14;50.76;100451.34;5031762;28;20120;-21
2021/04/23 08:28:08;;;;;;;4.38;1.98;;;;;;;16.96;48.62;100440.88;5050046;28;20393;-22
2021/04/23 08:30:33;;;;;;;2.97;1.88;;;;;;;16.80;50.85;100447.97;5049762;28;20097;-22
2021/04/23 08:32:59;;;;;;;2.83;2.00;;;;;;;16.76;50.23;100452.22;5049904;28;20063;-21
2021/04/23 08:35:24;;;;;;;2.95;1.83;;;;;;;16.98;49.71;100453.06;5019511;28;20045;-21
2021/04/23 08:37:50;;;;;;;2.72;1.92;;;;;;;17.07;50.32;100439.94;5028837;28;20076;-21
2021/04/23 08:40:17;;;;;;;3.72;1.95;;;;;;;17.47;49.55;100442.25;5029994;28;20041;-21
2021/04/23 08:42:42;;;;;;;2.60;1.88;;;;;;;17.70;49.62;100442.19;5029836;28;20037;-23
2021/04/23 08:45:16;;;;;;;2.88;2.00;;;;;;;17.58;49.40;100440.44;5029829;28;20095;-22
2021/04/23 08:47:41;;;;;;;3.47;1.70;;;;;;;17.23;48.90;100422.88;5029947;28;20028;-21
2021/04/23 08:50:10;;;;;;;4.15;2.05;;;;;;;17.75;50.96;100439.50;5029763;28;20037;-21
2021/04/23 08:52:35;;;;;;;3.38;1.80;;;;;;;17.47;48.30;100427.97;5011592;28;20045;-21
2021/04/23 08:55:02;;;;;;;3.67;2.17;;;;;;;17.64;49.67;100433.22;5029761;28;20031;-21
2021/04/23 08:57:28;;;;;;;3.25;1.75;;;;;;;17.78;48.22;100445.22;5029672;28;20079;-21
2021/04/23 08:59:53;;;;;;;1.65;1.38;;;;;;;17.53;47.88;100443.13;5029776;28;20406;-21
2021/04/23 09:02:19;;;;;;;2.90;2.10;;;;;;;17.94;47.50;100430.00;5029610;28;20037;-22
2021/04/23 09:04:44;;;;;;;2.60;1.90;;;;;;;18.27;47.59;100438.84;5029079;28;20032;-21
2021/04/23 09:07:10;;;;;;;3.15;1.90;;;;;;;18.26;46.70;100432.59;5029540;28;20064;-20
2021/04/23 09:09:37;;;;;;;3.83;1.70;;;;;;;18.36;47.04;100437.25;5029825;28;20094;-21
2021/04/23 09:12:25;;;;;;;3.53;1.65;;;;;;;18.03;47.00;100433.81;5029258;28;20039;-20
2021/04/23 09:14:52;;;;;;;2.58;1.35;;;;;;;18.11;48.04;100421.72;5010313;28;20488;-20
2021/04/23 09:17:19;;;;;;;3.03;1.90;;;;;;;18.09;46.05;100439.25;5029378;28;20037;-20
2021/04/23 09:19:45;;;;;;;4.55;2.00;;;;;;;17.81;46.53;100428.50;5029154;28;20418;-20
2021/04/23 09:22:17;;;;;;;1.83;1.65;;;;;;;18.25;49.52;100438.28;5029511;28;20068;-22
2021/04/23 09:24:44;;;;;;;2.33;1.85;;;;;;;18.40;48.01;100413.25;5029112;28;20029;-21
2021/04/23 09:27:16;;;;;;;2.70;1.67;;;;;;;18.54;45.56;100432.50;5028472;28;20033;-21
2021/04/23 09:29:46;;;;;;;2.75;1.38;;;;;;;18.43;46.33;100418.94;5028078;28;20053;-20
2021/04/23 09:32:15;;;;;;;3.55;1.67;;;;;;;18.53;46.11;100395.75;5028437;28;20052;-21
2021/04/23 09:34:48;;;;;;;1.80;1.50;;;;;;;18.55;46.15;100404.41;5028964;28;20028;-21
2021/04/23 09:37:14;;;;;;;3.80;1.50;;;;;;;19.31;46.16;100405.72;5029353;28;20033;-28
2021/04/23 09:39:40;;;;;;;1.77;1.20;;;;;;;19.57;44.26;100418.19;5029104;28;20033;-21
2021/04/23 09:42:09;;;;;;;1.63;1.17;;;;;;;19.63;42.30;100409.00;5011288;28;20061;-21
2021/04/23 09:44:35;;;;;;;1.90;1.13;;;;;;;19.77;42.71;100428.22;5028914;28;20037;-20
2021/04/23 09:47:18;;;;;;;2.45;1.35;;;;;;;19.89;43.78;100427.97;5028828;28;20747;-21
2021/04/23 09:49:54;;;;;;;1.88;1.00;;;;;;;19.64;43.39;100426.84;5028648;28;20033;-21
2021/04/23 09:52:19;;;;;;;1.00;0.90;;;;;;;19.37;42.95;100429.00;5011895;28;20053;-20
2021/04/23 09:54:51;;;;;;;2.55;1.02;;;;;;;19.17;42.12;100427.09;5028583;28;20413;-20
2021/04/23 09:57:36;;;;;;;1.30;1.00;;;;;;;19.07;42.64;100411.66;5028256;28;20025;-21
2021/04/23 10:00:07;;;;;;;2.38;0.93;;;;;;;18.82;44.19;100407.78;5027917;28;20064;-21
2021/04/23 10:02:32;;;;;;;2.70;0.80;;;;;;;18.74;43.05;100400.19;5028304;28;20052;-21
2021/04/23 10:04:58;;;;;;;2.15;0.88;;;;;;;19.42;42.95;100420.91;5028465;28;20463;-20
2021/04/23 10:07:27;;;;;;;1.45;0.90;;;;;;;19.87;42.22;100398.47;5010349;28;20415;-20
2021/04/23 10:09:55;;;;;;;1.30;1.20;;;;;;;20.21;39.50;100413.31;5028280;28;20494;-21
2021/04/23 10:12:39;;;;;;;1.80;1.20;;;;;;;20.61;40.52;100401.53;5028640;28;20029;-20
2021/04/23 10:15:14;;;;;;;2.88;1.20;;;;;;;20.66;40.11;100398.00;5028088;28;20030;-20
2021/04/23 10:17:44;;;;;;;2.10;1.30;;;;;;;20.38;37.67;100402.94;5027510;28;20033;-21
2021/04/23 10:20:12;;;;;;;1.70;1.20;;;;;;;20.70;40.75;100396.38;5027961;28;20049;-21
2021/04/23 10:22:37;;;;;;;4.27;1.40;;;;;;;20.76;40.16;100397.97;5027903;28;20122;-21
2021/04/23 10:25:04;;;;;;;2.53;1.10;;;;;;;20.18;40.18;100413.84;5028074;28;20068;-21
2021/04/23 10:27:30;;;;;;;3.20;1.30;;;;;;;19.97;39.83;100416.59;5027762;28;20037;-21
2021/04/23 10:29:55;;;;;;;3.05;1.60;;;;;;;20.54;40.57;100416.47;5010283;28;20041;-21
2021/04/23 10:32:21;;;;;;;3.35;1.98;;;;;;;20.75;39.25;100399.03;5027749;28;20485;-21
2021/04/23 10:34:47;;;;;;;4.05;2.50;;;;;;;20.19;39.19;100410.06;5027606;28;20025;-21
2021/04/23 10:37:13;;;;;;;3.67;2.13;;;;;;;20.32;41.47;100409.47;5027757;28;20104;-22
2021/04/23 10:39:43;;;;;;;2.45;1.75;;;;;;;20.45;39.55;100419.72;5027804;28;20095;-21
2021/04/23 10:43:05;;;;;;;3.42;2.25;;;;;;;20.48;39.48;100407.53;5010744;28;20033;-21
2021/04/23 10:45:36;;;;;;;3.05;1.98;;;;;;;20.27;39.55;100412.22;5004884;28;20049;-20
2021/04/23 10:48:23;;;;;;;3.92;2.50;;;;;;;20.27;39.34;100385.13;5027577;28;20040;-21
2021/04/23 10:50:54;;;;;;;3.57;2.00;;;;;;;20.66;38.22;100387.16;5027318;28;20065;-21
2021/04/23 10:53:44;;;;;;;4.40;1.90;;;;;;;20.97;37.92;100393.22;5027294;28;20053;-21
2021/04/23 10:56:29;;;;;;;3.38;1.90;;;;;;;21.56;40.87;100382.56;5027521;28;20029;-21
2021/04/23 10:58:57;;;;;;;2.88;1.80;;;;;;;21.86;37.11;100392.28;5009661;28;20552;-21
2021/04/23 11:01:27;;;;;;;2.27;1.53;;;;;;;20.92;36.31;100387.81;5009797;28;20025;-22
2021/04/23 11:04:10;;;;;;;5.18;2.53;;;;;;;20.71;38.09;100389.84;5027196;28;20275;-21
2021/04/23 11:07:03;;;;;;;4.80;2.03;;;;;;;20.50;39.58;100393.72;5027294;28;20038;-21
2021/04/23 11:09:29;;;;;;;4.25;1.88;;;;;;;20.33;39.46;100386.72;5019473;28;20108;-21
2021/04/23 11:12:06;;;;;;;5.93;2.80;;;;;;;20.43;38.00;100394.81;5026309;28;20135;-21
2021/04/23 11:14:32;;;;;;;2.70;1.70;;;;;;;20.74;40.04;100373.03;5027503;28;20920;-19
2021/04/23 11:17:16;;;;;;;3.92;1.98;;;;;;;20.95;38.99;100389.19;5027525;28;20136;-21
2021/04/23 11:19:42;;;;;;;9.68;4.30;;;;;;;20.86;38.69;100375.41;5027067;28;20061;-21
2021/04/23 11:22:09;;;;;;;3.47;2.17;;;;;;;20.64;38.78;100389.34;5027158;28;20115;-21